sensor_id;sensor_type;location;lat;lon;timestamp;pressure;altitude;pressure_sealevel;temperature;humidity
967;BME280;56108;48.730;9.304;2023-02-13T00:00:50;99436.81;;;1.81;100.00
967;BME280;56108;48.730;9.304;2023-02-13T00:02:58;99433.41;;;1.66;100.00
967;BME280;56108;48.730;9.304;2023-02-13T00:05:07;99431.66;;;1.69;100.00
967;BME280;56108;48.730;9.304;2023-02-13T00:07:15;99427.28;;;1.61;100.00
967;BME280;56108;48.730;9.304;2023-02-13T00:09:22;99422.06;;;1.56;100.00
967;BME280;56108;48.730;9.304;2023-02-13T00:11:30;99429.13;;;1.39;100.00
967;BME280;56108;48.730;9.304;2023-02-13T00:13:41;99418.63;;;1.43;100.00
967;BME280;56108;48.730;9.304;2023-02-13T00:15:54;99423.03;;;1.29;100.00
967;BME280;56108;48.730;9.304;2023-02-13T00:18:03;99423.09;;;1.11;100.00
967;BME280;56108;48.730;9.304;2023-02-13T00:20:12;99435.38;;;0.99;100.00
967;BME280;56108;48.730;9.304;2023-02-13T00:22:20;99419.63;;;0.98;100.00
967;BME280;56108;48.730;9.304;2023-02-13T00:24:28;99420.44;;;1.27;100.00
967;BME280;56108;48.730;9.304;2023-02-13T00:26:35;99418.75;;;1.07;100.00
967;BME280;56108;48.730;9.304;2023-02-13T00:28:46;99421.41;;;0.90;100.00
967;BME280;56108;48.730;9.304;2023-02-13T00:31:01;99417.88;;;0.97;100.00
967;BME280;56108;48.730;9.304;2023-02-13T00:33:09;99417.00;;;1.06;100.00
967;BME280;56108;48.730;9.304;2023-02-13T00:35:17;99411.75;;;1.01;100.00
967;BME280;56108;48.730;9.304;2023-02-13T00:37:27;99419.63;;;0.96;100.00
967;BME280;56108;48.730;9.304;2023-02-13T00:39:35;99415.28;;;0.77;100.00
967;BME280;56108;48.730;9.304;2023-02-13T00:41:43;99415.25;;;0.88;100.00
967;BME280;56108;48.730;9.304;2023-02-13T00:43:54;99410.00;;;0.92;100.00
967;BME280;56108;48.730;9.304;2023-02-13T00:46:02;99410.91;;;0.85;100.00
967;BME280;56108;48.730;9.304;2023-02-13T00:48:11;99412.66;;;0.85;100.00
967;BME280;56108;48.730;9.304;2023-02-13T00:50:19;99399.50;;;1.03;100.00
967;BME280;56108;48.730;9.304;2023-02-13T00:52:27;99405.63;;;0.93;100.00
967;BME280;56108;48.730;9.304;2023-02-13T00:54:35;99399.53;;;0.94;100.00
967;BME280;56108;48.730;9.304;2023-02-13T00:56:43;99401.28;;;0.87;100.00
967;BME280;56108;48.730;9.304;2023-02-13T00:58:54;99401.28;;;1.06;100.00
967;BME280;56108;48.730;9.304;2023-02-13T01:01:02;99410.03;;;0.85;100.00
967;BME280;56108;48.730;9.304;2023-02-13T01:03:11;99403.06;;;0.70;100.00
967;BME280;56108;48.730;9.304;2023-02-13T01:05:22;99386.44;;;0.82;100.00
967;BME280;56108;48.730;9.304;2023-02-13T01:07:32;99394.31;;;0.86;100.00
967;BME280;56108;48.730;9.304;2023-02-13T01:09:40;99396.00;;;1.02;100.00
967;BME280;56108;48.730;9.304;2023-02-13T01:11:48;99397.75;;;1.03;100.00
967;BME280;56108;48.730;9.304;2023-02-13T01:13:59;99392.53;;;0.99;100.00
967;BME280;56108;48.730;9.304;2023-02-13T01:16:07;99391.72;;;0.75;100.00
967;BME280;56108;48.730;9.304;2023-02-13T01:18:16;99396.09;;;0.58;100.00
967;BME280;56108;48.730;9.304;2023-02-13T01:20:25;99388.25;;;0.38;100.00
967;BME280;56108;48.730;9.304;2023-02-13T01:22:34;99385.59;;;0.31;100.00
967;BME280;56108;48.730;9.304;2023-02-13T01:24:42;99382.13;;;0.22;100.00
967;BME280;56108;48.730;9.304;2023-02-13T01:26:49;99379.50;;;0.25;100.00
967;BME280;56108;48.730;9.304;2023-02-13T01:29:00;99381.25;;;0.16;100.00
967;BME280;56108;48.730;9.304;2023-02-13T01:31:09;99383.00;;;0.12;100.00
967;BME280;56108;48.730;9.304;2023-02-13T01:33:17;99377.72;;;0.05;100.00
967;BME280;56108;48.730;9.304;2023-02-13T01:35:25;99369.91;;;0.12;100.00
967;BME280;56108;48.730;9.304;2023-02-13T01:37:33;99379.50;;;0.25;100.00
967;BME280;56108;48.730;9.304;2023-02-13T01:39:42;99376.91;;;0.16;100.00
967;BME280;56108;48.730;9.304;2023-02-13T01:41:51;99372.50;;;0.26;100.00
967;BME280;56108;48.730;9.304;2023-02-13T01:44:03;99371.66;;;0.24;100.00
967;BME280;56108;48.730;9.304;2023-02-13T01:46:11;99358.56;;;0.35;100.00
967;BME280;56108;48.730;9.304;2023-02-13T01:48:22;99369.88;;;0.15;100.00
967;BME280;56108;48.730;9.304;2023-02-13T01:50:41;99366.38;;;-0.01;100.00
967;BME280;56108;48.730;9.304;2023-02-13T01:52:56;99369.00;;;-0.04;100.00
967;BME280;56108;48.730;9.304;2023-02-13T01:55:07;99352.44;;;-0.04;100.00
967;BME280;56108;48.730;9.304;2023-02-13T01:57:19;99356.81;;;0.02;100.00
967;BME280;56108;48.730;9.304;2023-02-13T01:59:36;99355.03;;;-0.07;100.00
967;BME280;56108;48.730;9.304;2023-02-13T02:01:45;99355.91;;;-0.02;100.00
967;BME280;56108;48.730;9.304;2023-02-13T02:03:56;99354.16;;;-0.02;100.00
967;BME280;56108;48.730;9.304;2023-02-13T02:06:14;99360.25;;;-0.06;100.00
967;BME280;56108;48.730;9.304;2023-02-13T02:08:25;99356.78;;;0.05;100.00
967;BME280;56108;48.730;9.304;2023-02-13T02:10:33;99347.19;;;-0.09;100.00
967;BME280;56108;48.730;9.304;2023-02-13T02:12:46;99344.56;;;-0.16;100.00
967;BME280;56108;48.730;9.304;2023-02-13T02:15:00;99347.19;;;-0.06;100.00
967;BME280;56108;48.730;9.304;2023-02-13T02:17:10;99336.75;;;0.07;100.00
967;BME280;56108;48.730;9.304;2023-02-13T02:19:28;99338.50;;;0.11;100.00
967;BME280;56108;48.730;9.304;2023-02-13T02:22:00;99343.72;;;0.00;100.00
967;BME280;56108;48.730;9.304;2023-02-13T02:24:40;99341.09;;;-0.15;100.00
967;BME280;56108;48.730;9.304;2023-02-13T02:27:17;99341.94;;;-0.22;100.00
967;BME280;56108;48.730;9.304;2023-02-13T02:32:36;99341.09;;;0.02;100.00
967;BME280;56108;48.730;9.304;2023-02-13T02:34:53;99334.97;;;-0.11;100.00
967;BME280;56108;48.730;9.304;2023-02-13T02:37:15;99342.81;;;-0.23;100.00
967;BME280;56108;48.730;9.304;2023-02-13T02:39:35;99334.97;;;-0.25;100.00
967;BME280;56108;48.730;9.304;2023-02-13T02:41:58;99343.66;;;-0.29;100.00
967;BME280;56108;48.730;9.304;2023-02-13T02:44:19;99339.31;;;-0.22;100.00
967;BME280;56108;48.730;9.304;2023-02-13T02:46:37;99336.72;;;-0.24;100.00
967;BME280;56108;48.730;9.304;2023-02-13T02:49:13;99335.88;;;0.02;100.00
967;BME280;56108;48.730;9.304;2023-02-13T02:51:39;99339.31;;;-0.18;100.00
967;BME280;56108;48.730;9.304;2023-02-13T02:54:02;99336.69;;;-0.27;100.00
967;BME280;56108;48.730;9.304;2023-02-13T02:56:37;99337.53;;;-0.39;100.00
967;BME280;56108;48.730;9.304;2023-02-13T02:58:51;99343.63;;;-0.43;100.00
967;BME280;56108;48.730;9.304;2023-02-13T03:01:16;99337.56;;;-0.30;100.00
967;BME280;56108;48.730;9.304;2023-02-13T03:03:40;99334.03;;;-0.42;100.00
967;BME280;56108;48.730;9.304;2023-02-13T03:06:08;99337.53;;;-0.37;100.00
967;BME280;56108;48.730;9.304;2023-02-13T03:08:19;99337.53;;;-0.46;100.00
967;BME280;56108;48.730;9.304;2023-02-13T03:10:47;99334.03;;;-0.51;100.00
967;BME280;56108;48.730;9.304;2023-02-13T03:13:12;99336.63;;;-0.56;100.00
967;BME280;56108;48.730;9.304;2023-02-13T03:15:41;99327.91;;;-0.58;100.00
967;BME280;56108;48.730;9.304;2023-02-13T03:18:02;99340.97;;;-0.58;100.00
967;BME280;56108;48.730;9.304;2023-02-13T03:20:30;99340.97;;;-0.64;100.00
967;BME280;56108;48.730;9.304;2023-02-13T03:23:10;99336.63;;;-0.62;100.00
967;BME280;56108;48.730;9.304;2023-02-13T03:25:27;99344.44;;;-0.67;100.00
967;BME280;56108;48.730;9.304;2023-02-13T03:27:44;99345.38;;;-0.51;100.00
967;BME280;56108;48.730;9.304;2023-02-13T03:30:17;99344.47;;;-0.58;100.00
967;BME280;56108;48.730;9.304;2023-02-13T03:32:34;99350.53;;;-0.66;100.00
967;BME280;56108;48.730;9.304;2023-02-13T03:34:51;99354.06;;;-0.55;100.00
967;BME280;56108;48.730;9.304;2023-02-13T03:37:26;99348.84;;;-0.57;100.00
967;BME280;56108;48.730;9.304;2023-02-13T03:39:55;99352.31;;;-0.61;100.00
967;BME280;56108;48.730;9.304;2023-02-13T03:42:10;99351.41;;;-0.66;100.00
967;BME280;56108;48.730;9.304;2023-02-13T03:44:27;99353.19;;;-0.62;100.00
967;BME280;56108;48.730;9.304;2023-02-13T03:46:40;99355.81;;;-0.53;100.00
967;BME280;56108;48.730;9.304;2023-02-13T03:48:49;99353.22;;;-0.43;100.00
967;BME280;56108;48.730;9.304;2023-02-13T03:51:13;99360.19;;;-0.51;100.00
967;BME280;56108;48.730;9.304;2023-02-13T03:53:24;99354.06;;;-0.57;100.00
967;BME280;56108;48.730;9.304;2023-02-13T03:55:40;99364.50;;;-0.64;100.00
967;BME280;56108;48.730;9.304;2023-02-13T03:58:06;99362.72;;;-0.70;100.00
967;BME280;56108;48.730;9.304;2023-02-13T04:00:33;99363.63;;;-0.63;100.00
967;BME280;56108;48.730;9.304;2023-02-13T04:02:51;99367.13;;;-0.54;100.00
967;BME280;56108;48.730;9.304;2023-02-13T04:05:06;99368.88;;;-0.62;100.00
967;BME280;56108;48.730;9.304;2023-02-13T04:07:20;99374.94;;;-0.67;100.00
967;BME280;56108;48.730;9.304;2023-02-13T04:09:38;99370.59;;;-0.65;100.00
967;BME280;56108;48.730;9.304;2023-02-13T04:11:55;99374.06;;;-0.66;100.00
967;BME280;56108;48.730;9.304;2023-02-13T04:14:08;99374.91;;;-0.69;100.00
967;BME280;56108;48.730;9.304;2023-02-13T04:16:21;99376.63;;;-0.79;100.00
967;BME280;56108;48.730;9.304;2023-02-13T04:18:32;99379.31;;;-0.68;100.00
967;BME280;56108;48.730;9.304;2023-02-13T04:20:40;99373.19;;;-0.73;100.00
967;BME280;56108;48.730;9.304;2023-02-13T04:22:48;99381.84;;;-0.82;100.00
967;BME280;56108;48.730;9.304;2023-02-13T04:24:56;99382.69;;;-0.87;100.00
967;BME280;56108;48.730;9.304;2023-02-13T04:27:07;99384.41;;;-0.89;100.00
967;BME280;56108;48.730;9.304;2023-02-13T04:29:16;99378.31;;;-0.93;100.00
967;BME280;56108;48.730;9.304;2023-02-13T04:31:35;99387.91;;;-0.90;100.00
967;BME280;56108;48.730;9.304;2023-02-13T04:33:47;99387.09;;;-0.77;100.00
967;BME280;56108;48.730;9.304;2023-02-13T04:35:55;99394.97;;;-0.71;100.00
967;BME280;56108;48.730;9.304;2023-02-13T04:38:03;99388.78;;;-0.87;100.00
967;BME280;56108;48.730;9.304;2023-02-13T04:40:11;99385.31;;;-0.87;100.00
967;BME280;56108;48.730;9.304;2023-02-13T04:42:22;99383.59;;;-0.81;100.00
967;BME280;56108;48.730;9.304;2023-02-13T04:44:30;99379.22;;;-0.80;100.00
967;BME280;56108;48.730;9.304;2023-02-13T04:46:38;99379.25;;;-0.83;100.00
967;BME280;56108;48.730;9.304;2023-02-13T04:48:46;99379.22;;;-0.88;100.00
967;BME280;56108;48.730;9.304;2023-02-13T04:50:56;99379.22;;;-0.79;100.00
967;BME280;56108;48.730;9.304;2023-02-13T04:53:04;99381.81;;;-0.88;100.00
967;BME280;56108;48.730;9.304;2023-02-13T04:55:12;99382.63;;;-0.95;100.00
967;BME280;56108;48.730;9.304;2023-02-13T04:57:23;99390.47;;;-0.98;100.00
967;BME280;56108;48.730;9.304;2023-02-13T04:59:31;99387.00;;;-0.98;100.00
967;BME280;56108;48.730;9.304;2023-02-13T05:01:39;99388.72;;;-1.02;100.00
967;BME280;56108;48.730;9.304;2023-02-13T05:03:47;99397.41;;;-1.09;100.00
967;BME280;56108;48.730;9.304;2023-02-13T05:05:55;99399.94;;;-1.20;100.00
967;BME280;56108;48.730;9.304;2023-02-13T05:08:07;99406.88;;;-1.22;100.00
967;BME280;56108;48.730;9.304;2023-02-13T05:10:21;99401.63;;;-1.26;100.00
967;BME280;56108;48.730;9.304;2023-02-13T05:12:32;99405.13;;;-1.24;100.00
967;BME280;56108;48.730;9.304;2023-02-13T05:14:40;99394.78;;;-1.05;100.00
967;BME280;56108;48.730;9.304;2023-02-13T05:16:48;99398.25;;;-1.06;100.00
967;BME280;56108;48.730;9.304;2023-02-13T05:18:56;99395.63;;;-1.10;100.00
967;BME280;56108;48.730;9.304;2023-02-13T05:21:04;99402.47;;;-1.29;100.00
967;BME280;56108;48.730;9.304;2023-02-13T05:23:25;99393.75;;;-1.33;100.00
967;BME280;56108;48.730;9.304;2023-02-13T05:25:33;99405.06;;;-1.32;100.00
967;BME280;56108;48.730;9.304;2023-02-13T05:27:44;99401.53;;;-1.39;100.00
967;BME280;56108;48.730;9.304;2023-02-13T05:29:52;99403.34;;;-1.30;100.00
967;BME280;56108;48.730;9.304;2023-02-13T05:31:57;99407.81;;;-1.14;100.00
967;BME280;56108;48.730;9.304;2023-02-13T05:34:06;99390.38;;;-1.16;100.00
967;BME280;56108;48.730;9.304;2023-02-13T05:36:14;99397.25;;;-1.30;100.00
967;BME280;56108;48.730;9.304;2023-02-13T05:38:22;99406.84;;;-1.28;100.00
967;BME280;56108;48.730;9.304;2023-02-13T05:40:30;99402.41;;;-1.37;100.00
967;BME280;56108;48.730;9.304;2023-02-13T05:42:38;99399.75;;;-1.41;100.00
967;BME280;56108;48.730;9.304;2023-02-13T05:44:49;99397.19;;;-1.38;100.00
967;BME280;56108;48.730;9.304;2023-02-13T05:46:57;99392.84;;;-1.36;100.00
967;BME280;56108;48.730;9.304;2023-02-13T05:49:05;99397.25;;;-1.30;100.00
967;BME280;56108;48.730;9.304;2023-02-13T05:51:14;99399.00;;;-1.28;100.00
967;BME280;56108;48.730;9.304;2023-02-13T05:53:21;99395.41;;;-1.45;100.00
967;BME280;56108;48.730;9.304;2023-02-13T05:55:29;99392.78;;;-1.44;100.00
967;BME280;56108;48.730;9.304;2023-02-13T05:57:37;99392.78;;;-1.42;100.00
967;BME280;56108;48.730;9.304;2023-02-13T05:59:45;99386.75;;;-1.37;100.00
967;BME280;56108;48.730;9.304;2023-02-13T06:01:56;99394.66;;;-1.26;100.00
967;BME280;56108;48.730;9.304;2023-02-13T06:04:04;99390.28;;;-1.27;100.00
967;BME280;56108;48.730;9.304;2023-02-13T06:06:13;99391.16;;;-1.28;100.00
967;BME280;56108;48.730;9.304;2023-02-13T06:08:21;99390.28;;;-1.30;100.00
967;BME280;56108;48.730;9.304;2023-02-13T06:10:29;99385.88;;;-1.37;100.00
967;BME280;56108;48.730;9.304;2023-02-13T06:12:37;99388.47;;;-1.39;100.00
967;BME280;56108;48.730;9.304;2023-02-13T06:14:45;99386.78;;;-1.32;100.00
967;BME280;56108;48.730;9.304;2023-02-13T06:16:55;99390.22;;;-1.36;100.00
967;BME280;56108;48.730;9.304;2023-02-13T06:19:06;99386.81;;;-1.30;100.00
967;BME280;56108;48.730;9.304;2023-02-13T06:21:16;99391.19;;;-1.20;100.00
967;BME280;56108;48.730;9.304;2023-02-13T06:23:26;99386.84;;;-1.21;100.00
967;BME280;56108;48.730;9.304;2023-02-13T06:25:34;99388.72;;;-1.02;100.00
967;BME280;56108;48.730;9.304;2023-02-13T06:27:42;99391.31;;;-1.03;100.00
967;BME280;56108;48.730;9.304;2023-02-13T06:29:50;99392.16;;;-1.08;100.00
967;BME280;56108;48.730;9.304;2023-02-13T06:32:01;99409.53;;;-1.17;100.00
967;BME280;56108;48.730;9.304;2023-02-13T06:34:09;99406.91;;;-1.16;100.00
967;BME280;56108;48.730;9.304;2023-02-13T06:36:16;99409.47;;;-1.22;100.00
967;BME280;56108;48.730;9.304;2023-02-13T06:38:25;99406.06;;;-1.15;100.00
967;BME280;56108;48.730;9.304;2023-02-13T06:40:32;99414.78;;;-1.11;100.00
967;BME280;56108;48.730;9.304;2023-02-13T06:42:41;99406.03;;;-1.19;100.00
967;BME280;56108;48.730;9.304;2023-02-13T06:44:49;99405.13;;;-1.21;100.00
967;BME280;56108;48.730;9.304;2023-02-13T06:47:14;99414.72;;;-1.20;100.00
967;BME280;56108;48.730;9.304;2023-02-13T06:49:23;99406.03;;;-1.16;100.00
967;BME280;56108;48.730;9.304;2023-02-13T06:51:32;99412.19;;;-1.08;100.00
967;BME280;56108;48.730;9.304;2023-02-13T06:53:41;99405.22;;;-1.05;100.00
967;BME280;56108;48.730;9.304;2023-02-13T06:55:50;99407.94;;;-0.94;100.00
967;BME280;56108;48.730;9.304;2023-02-13T06:57:58;99408.81;;;-0.90;100.00
967;BME280;56108;48.730;9.304;2023-02-13T07:00:07;99411.38;;;-0.95;100.00
967;BME280;56108;48.730;9.304;2023-02-13T07:02:20;99417.53;;;-0.85;100.00
967;BME280;56108;48.730;9.304;2023-02-13T07:04:28;99410.63;;;-0.74;100.00
967;BME280;56108;48.730;9.304;2023-02-13T07:06:36;99415.03;;;-0.64;100.00
967;BME280;56108;48.730;9.304;2023-02-13T07:08:46;99413.28;;;-0.65;100.00
967;BME280;56108;48.730;9.304;2023-02-13T07:11:00;99415.97;;;-0.56;100.00
967;BME280;56108;48.730;9.304;2023-02-13T07:13:11;99417.69;;;-0.56;100.00
967;BME280;56108;48.730;9.304;2023-02-13T07:15:19;99411.59;;;-0.54;100.00
967;BME280;56108;48.730;9.304;2023-02-13T07:17:30;99416.84;;;-0.50;100.00
967;BME280;56108;48.730;9.304;2023-02-13T07:19:38;99422.91;;;-0.53;100.00
967;BME280;56108;48.730;9.304;2023-02-13T07:21:46;99422.03;;;-0.60;100.00
967;BME280;56108;48.730;9.304;2023-02-13T07:23:54;99429.88;;;-0.60;100.00
967;BME280;56108;48.730;9.304;2023-02-13T07:26:02;99431.63;;;-0.53;100.00
967;BME280;56108;48.730;9.304;2023-02-13T07:28:10;99432.50;;;-0.61;100.00
967;BME280;56108;48.730;9.304;2023-02-13T07:30:19;99431.66;;;-0.51;100.00
967;BME280;56108;48.730;9.304;2023-02-13T07:32:30;99432.53;;;-0.49;100.00
967;BME280;56108;48.730;9.304;2023-02-13T07:34:37;99445.59;;;-0.47;100.00
967;BME280;56108;48.730;9.304;2023-02-13T07:36:59;99446.47;;;-0.48;100.00
967;BME280;56108;48.730;9.304;2023-02-13T07:39:07;99446.50;;;-0.47;100.00
967;BME280;56108;48.730;9.304;2023-02-13T07:41:17;99450.03;;;-0.36;100.00
967;BME280;56108;48.730;9.304;2023-02-13T07:43:25;99454.38;;;-0.33;100.00
967;BME280;56108;48.730;9.304;2023-02-13T07:45:33;99455.31;;;-0.17;100.00
967;BME280;56108;48.730;9.304;2023-02-13T07:47:44;99462.28;;;-0.22;100.00
967;BME280;56108;48.730;9.304;2023-02-13T07:49:52;99470.16;;;-0.19;100.00
967;BME280;56108;48.730;9.304;2023-02-13T07:52:00;99462.31;;;-0.19;100.00
967;BME280;56108;48.730;9.304;2023-02-13T07:54:08;99462.31;;;-0.15;100.00
967;BME280;56108;48.730;9.304;2023-02-13T07:56:16;99472.81;;;-0.07;100.00
967;BME280;56108;48.730;9.304;2023-02-13T07:58:24;99469.34;;;0.05;100.00
967;BME280;56108;48.730;9.304;2023-02-13T08:00:32;99469.34;;;0.08;100.00
967;BME280;56108;48.730;9.304;2023-02-13T08:02:39;99477.22;;;0.11;100.00
967;BME280;56108;48.730;9.304;2023-02-13T08:04:50;99480.75;;;0.22;100.00
967;BME280;56108;48.730;9.304;2023-02-13T08:06:58;99488.66;;;0.52;100.00
967;BME280;56108;48.730;9.304;2023-02-13T08:09:06;99491.28;;;0.60;100.00
967;BME280;56108;48.730;9.304;2023-02-13T08:11:31;99504.38;;;0.69;100.00
967;BME280;56108;48.730;9.304;2023-02-13T08:13:52;99501.75;;;0.68;100.00
967;BME280;56108;48.730;9.304;2023-02-13T08:16:00;99512.22;;;0.66;100.00
967;BME280;56108;48.730;9.304;2023-02-13T08:18:07;99514.88;;;0.75;100.00
967;BME280;56108;48.730;9.304;2023-02-13T08:20:19;99523.59;;;0.88;100.00
967;BME280;56108;48.730;9.304;2023-02-13T08:22:27;99526.22;;;0.85;100.00
967;BME280;56108;48.730;9.304;2023-02-13T08:24:35;99532.34;;;0.92;100.00
967;BME280;56108;48.730;9.304;2023-02-13T08:26:43;99534.97;;;0.90;100.00
967;BME280;56108;48.730;9.304;2023-02-13T08:28:51;99531.47;;;0.85;100.00
967;BME280;56108;48.730;9.304;2023-02-13T08:31:00;99534.97;;;0.87;100.00
967;BME280;56108;48.730;9.304;2023-02-13T08:33:07;99534.97;;;1.01;100.00
967;BME280;56108;48.730;9.304;2023-02-13T08:35:16;99528.84;;;0.99;100.00
967;BME280;56108;48.730;9.304;2023-02-13T08:37:26;99533.22;;;0.89;100.00
967;BME280;56108;48.730;9.304;2023-02-13T08:39:34;99527.97;;;0.91;100.00
967;BME280;56108;48.730;9.304;2023-02-13T08:41:43;99526.22;;;1.00;100.00
967;BME280;56108;48.730;9.304;2023-02-13T08:43:52;99523.59;;;1.20;100.00
967;BME280;56108;48.730;9.304;2023-02-13T08:46:00;99528.84;;;1.23;100.00
967;BME280;56108;48.730;9.304;2023-02-13T08:48:08;99528.84;;;1.28;100.00
967;BME280;56108;48.730;9.304;2023-02-13T08:50:16;99527.97;;;1.32;100.00
967;BME280;56108;48.730;9.304;2023-02-13T08:52:28;99531.47;;;1.26;100.00
967;BME280;56108;48.730;9.304;2023-02-13T08:54:36;99521.81;;;1.41;100.00
967;BME280;56108;48.730;9.304;2023-02-13T08:56:43;99519.16;;;1.58;100.00
967;BME280;56108;48.730;9.304;2023-02-13T08:58:51;99519.13;;;1.70;100.00
967;BME280;56108;48.730;9.304;2023-02-13T09:01:03;99526.09;;;1.80;100.00
967;BME280;56108;48.730;9.304;2023-02-13T09:03:11;99533.09;;;1.72;100.00
967;BME280;56108;48.730;9.304;2023-02-13T09:05:19;99532.25;;;1.70;100.00
967;BME280;56108;48.730;9.304;2023-02-13T09:07:30;99534.81;;;1.77;100.00
967;BME280;56108;48.730;9.304;2023-02-13T09:09:38;99535.69;;;1.82;100.00
967;BME280;56108;48.730;9.304;2023-02-13T09:11:46;99543.53;;;1.96;100.00
967;BME280;56108;48.730;9.304;2023-02-13T09:13:57;99540.03;;;1.99;100.00
967;BME280;56108;48.730;9.304;2023-02-13T09:16:06;99540.00;;;2.06;100.00
967;BME280;56108;48.730;9.304;2023-02-13T09:18:15;99546.06;;;2.18;100.00
967;BME280;56108;48.730;9.304;2023-02-13T09:20:23;99544.28;;;2.24;100.00
967;BME280;56108;48.730;9.304;2023-02-13T09:22:34;99551.19;;;2.47;100.00
967;BME280;56108;48.730;9.304;2023-02-13T09:24:42;99553.72;;;2.60;100.00
967;BME280;56108;48.730;9.304;2023-02-13T09:26:50;99556.09;;;3.00;100.00
967;BME280;56108;48.730;9.304;2023-02-13T09:29:00;99558.88;;;3.79;100.00
967;BME280;56108;48.730;9.304;2023-02-13T09:31:10;99558.47;;;4.79;100.00
967;BME280;56108;48.730;9.304;2023-02-13T09:33:19;99562.00;;;4.78;100.00
967;BME280;56108;48.730;9.304;2023-02-13T09:35:27;99561.81;;;4.90;95.74
967;BME280;56108;48.730;9.304;2023-02-13T09:37:38;99558.38;;;4.85;94.16
967;BME280;56108;48.730;9.304;2023-02-13T09:39:47;99560.66;;;6.08;88.44
967;BME280;56108;48.730;9.304;2023-02-13T09:41:59;99560.63;;;6.53;86.23
967;BME280;56108;48.730;9.304;2023-02-13T09:44:12;99581.91;;;7.60;78.02
967;BME280;56108;48.730;9.304;2023-02-13T09:46:38;99586.34;;;7.94;73.48
967;BME280;56108;48.730;9.304;2023-02-13T09:48:50;99590.75;;;8.26;69.14
967;BME280;56108;48.730;9.304;2023-02-13T09:51:00;99586.50;;;8.19;71.24
967;BME280;56108;48.730;9.304;2023-02-13T09:53:20;99598.78;;;8.85;66.67
967;BME280;56108;48.730;9.304;2023-02-13T09:55:31;99628.28;;;11.30;59.05
967;BME280;56108;48.730;9.304;2023-02-13T09:57:46;99642.34;;;12.61;54.53
967;BME280;56108;48.730;9.304;2023-02-13T10:00:03;99633.38;;;10.91;56.58
967;BME280;56108;48.730;9.304;2023-02-13T10:02:26;99655.91;;;12.36;51.49
967;BME280;56108;48.730;9.304;2023-02-13T10:04:44;99671.66;;;13.20;49.76
967;BME280;56108;48.730;9.304;2023-02-13T10:07:05;99664.69;;;11.53;51.89
967;BME280;56108;48.730;9.304;2023-02-13T10:09:26;99669.78;;;13.41;48.47
967;BME280;56108;48.730;9.304;2023-02-13T10:11:48;99674.66;;;12.94;49.04
967;BME280;56108;48.730;9.304;2023-02-13T10:14:08;99648.56;;;11.56;53.62
967;BME280;56108;48.730;9.304;2023-02-13T10:16:20;99657.31;;;12.04;52.27
967;BME280;56108;48.730;9.304;2023-02-13T10:18:37;99671.03;;;13.34;49.40
967;BME280;56108;48.730;9.304;2023-02-13T10:20:51;99649.75;;;10.32;54.10
967;BME280;56108;48.730;9.304;2023-02-13T10:23:11;99643.59;;;11.47;53.61
967;BME280;56108;48.730;9.304;2023-02-13T10:25:28;99660.84;;;12.24;51.19
967;BME280;56108;48.730;9.304;2023-02-13T10:27:39;99656.91;;;12.13;51.90
967;BME280;56108;48.730;9.304;2023-02-13T10:29:53;99649.09;;;12.49;51.17
967;BME280;56108;48.730;9.304;2023-02-13T10:32:18;99668.19;;;12.60;49.08
967;BME280;56108;48.730;9.304;2023-02-13T10:34:34;99666.06;;;12.48;49.43
967;BME280;56108;48.730;9.304;2023-02-13T10:36:49;99670.06;;;12.17;49.64
967;BME280;56108;48.730;9.304;2023-02-13T10:39:02;99662.31;;;12.52;49.38
967;BME280;56108;48.730;9.304;2023-02-13T10:41:28;99655.56;;;12.02;50.50
967;BME280;56108;48.730;9.304;2023-02-13T10:43:48;99647.81;;;12.58;50.84
967;BME280;56108;48.730;9.304;2023-02-13T10:46:06;99656.75;;;12.57;48.18
967;BME280;56108;48.730;9.304;2023-02-13T10:48:36;99634.66;;;11.26;52.34
967;BME280;56108;48.730;9.304;2023-02-13T10:50:57;99634.56;;;11.51;52.22
967;BME280;56108;48.730;9.304;2023-02-13T10:53:16;99633.19;;;11.85;51.63
967;BME280;56108;48.730;9.304;2023-02-13T10:55:54;99635.75;;;11.44;51.20
967;BME280;56108;48.730;9.304;2023-02-13T10:58:13;99630.59;;;11.39;50.55
967;BME280;56108;48.730;9.304;2023-02-13T11:00:31;99610.22;;;10.93;53.37
967;BME280;56108;48.730;9.304;2023-02-13T11:02:43;99620.34;;;12.15;50.94
967;BME280;56108;48.730;9.304;2023-02-13T11:04:57;99615.97;;;11.28;52.25
967;BME280;56108;48.730;9.304;2023-02-13T11:07:11;99584.03;;;9.03;56.76
967;BME280;56108;48.730;9.304;2023-02-13T11:09:21;99558.63;;;7.39;64.50
967;BME280;56108;48.730;9.304;2023-02-13T11:11:31;99529.31;;;6.72;71.13
967;BME280;56108;48.730;9.304;2023-02-13T11:13:42;99529.00;;;6.48;75.43
967;BME280;56108;48.730;9.304;2023-02-13T11:16:02;99523.16;;;6.33;76.52
967;BME280;56108;48.730;9.304;2023-02-13T11:18:17;99533.50;;;6.01;80.49
967;BME280;56108;48.730;9.304;2023-02-13T11:20:32;99534.53;;;5.93;79.74
967;BME280;56108;48.730;9.304;2023-02-13T11:22:41;99538.75;;;6.03;79.67
967;BME280;56108;48.730;9.304;2023-02-13T11:24:52;99533.25;;;6.14;79.84
967;BME280;56108;48.730;9.304;2023-02-13T11:27:04;99529.22;;;5.96;80.66
967;BME280;56108;48.730;9.304;2023-02-13T11:29:22;99524.72;;;6.01;82.03
967;BME280;56108;48.730;9.304;2023-02-13T11:31:32;99519.69;;;5.84;82.68
967;BME280;56108;48.730;9.304;2023-02-13T11:33:41;99513.63;;;5.81;83.99
967;BME280;56108;48.730;9.304;2023-02-13T11:36:04;99524.53;;;5.62;84.21
967;BME280;56108;48.730;9.304;2023-02-13T11:38:20;99521.56;;;5.79;85.02
967;BME280;56108;48.730;9.304;2023-02-13T11:40:32;99513.13;;;6.07;84.71
967;BME280;56108;48.730;9.304;2023-02-13T11:42:41;99515.28;;;6.30;84.08
967;BME280;56108;48.730;9.304;2023-02-13T11:44:55;99519.22;;;6.50;82.18
967;BME280;56108;48.730;9.304;2023-02-13T11:47:05;99522.06;;;6.43;80.14
967;BME280;56108;48.730;9.304;2023-02-13T11:49:18;99519.38;;;6.44;79.63
967;BME280;56108;48.730;9.304;2023-02-13T11:51:41;99518.09;;;6.22;80.35
967;BME280;56108;48.730;9.304;2023-02-13T11:53:51;99523.03;;;6.39;80.13
967;BME280;56108;48.730;9.304;2023-02-13T11:56:07;99519.41;;;6.43;81.88
967;BME280;56108;48.730;9.304;2023-02-13T11:58:23;99521.78;;;6.55;81.13
967;BME280;56108;48.730;9.304;2023-02-13T12:00:36;99514.03;;;6.47;80.22